sensor_id;sensor_type;location;lat;lon;timestamp;P1;durP1;ratioP1;P2;durP2;ratioP2
1567;SDS011;777;47.156;8.326;2023-04-03T00:02:04;3.90;;;3.50;;
1567;SDS011;777;47.156;8.326;2023-04-03T00:04:31;4.78;;;4.38;;
1567;SDS011;777;47.156;8.326;2023-04-03T00:06:59;5.18;;;4.78;;
1567;SDS011;777;47.156;8.326;2023-04-03T00:09:26;4.47;;;4.18;;
1567;SDS011;777;47.156;8.326;2023-04-03T00:11:53;3.97;;;3.67;;
1567;SDS011;777;47.156;8.326;2023-04-03T00:14:20;3.20;;;3.00;;
1567;SDS011;777;47.156;8.326;2023-04-03T00:16:47;4.07;;;3.78;;
1567;SDS011;777;47.156;8.326;2023-04-03T00:19:16;3.70;;;3.47;;
1567;SDS011;777;47.156;8.326;2023-04-03T00:21:43;3.92;;;3.63;;
1567;SDS011;777;47.156;8.326;2023-04-03T00:24:11;3.45;;;3.25;;
1567;SDS011;777;47.156;8.326;2023-04-03T00:26:38;4.75;;;3.78;;
1567;SDS011;777;47.156;8.326;2023-04-03T00:29:05;4.25;;;3.85;;
1567;SDS011;777;47.156;8.326;2023-04-03T00:31:32;2.95;;;2.75;;
1567;SDS011;777;47.156;8.326;2023-04-03T00:33:59;2.60;;;2.40;;
1567;SDS011;777;47.156;8.326;2023-04-03T00:36:26;2.33;;;2.13;;
1567;SDS011;777;47.156;8.326;2023-04-03T00:38:53;2.50;;;2.30;;
1567;SDS011;777;47.156;8.326;2023-04-03T00:41:22;2.55;;;2.35;;
1567;SDS011;777;47.156;8.326;2023-04-03T00:43:50;2.55;;;2.20;;
1567;SDS011;777;47.156;8.326;2023-04-03T00:46:17;3.17;;;2.97;;
1567;SDS011;777;47.156;8.326;2023-04-03T00:48:45;4.53;;;3.35;;
1567;SDS011;777;47.156;8.326;2023-04-03T00:51:14;4.30;;;4.00;;
1567;SDS011;777;47.156;8.326;2023-04-03T00:53:46;4.32;;;4.03;;
1567;SDS011;777;47.156;8.326;2023-04-03T00:56:16;5.18;;;4.78;;
1567;SDS011;777;47.156;8.326;2023-04-03T00:58:49;5.72;;;5.20;;
1567;SDS011;777;47.156;8.326;2023-04-03T01:03:49;6.15;;;5.65;;
1567;SDS011;777;47.156;8.326;2023-04-03T01:06:19;6.80;;;6.20;;
1567;SDS011;777;47.156;8.326;2023-04-03T01:08:49;7.70;;;7.00;;
1567;SDS011;777;47.156;8.326;2023-04-03T01:11:17;7.88;;;7.18;;
1567;SDS011;777;47.156;8.326;2023-04-03T01:13:46;9.00;;;8.20;;
1567;SDS011;777;47.156;8.326;2023-04-03T01:16:15;9.38;;;8.55;;
1567;SDS011;777;47.156;8.326;2023-04-03T01:18:43;11.07;;;10.18;;
1567;SDS011;777;47.156;8.326;2023-04-03T01:24:32;12.40;;;11.30;;
1567;SDS011;777;47.156;8.326;2023-04-03T01:27:04;13.05;;;11.80;;
1567;SDS011;777;47.156;8.326;2023-04-03T01:29:32;13.63;;;12.35;;
1567;SDS011;777;47.156;8.326;2023-04-03T01:32:02;12.65;;;11.45;;
1567;SDS011;777;47.156;8.326;2023-04-03T01:34:30;12.95;;;11.73;;
1567;SDS011;777;47.156;8.326;2023-04-03T01:36:57;12.30;;;11.10;;
1567;SDS011;777;47.156;8.326;2023-04-03T01:39:24;9.63;;;8.73;;
1567;SDS011;777;47.156;8.326;2023-04-03T01:41:52;9.13;;;8.32;;
1567;SDS011;777;47.156;8.326;2023-04-03T01:44:25;7.20;;;6.60;;
1567;SDS011;777;47.156;8.326;2023-04-03T01:46:52;6.22;;;5.50;;
1567;SDS011;777;47.156;8.326;2023-04-03T01:49:22;5.70;;;5.20;;
1567;SDS011;777;47.156;8.326;2023-04-03T01:51:50;5.82;;;5.13;;
1567;SDS011;777;47.156;8.326;2023-04-03T01:54:17;6.03;;;5.50;;
1567;SDS011;777;47.156;8.326;2023-04-03T01:56:44;6.90;;;6.20;;
1567;SDS011;777;47.156;8.326;2023-04-03T01:59:12;6.55;;;5.95;;
1567;SDS011;777;47.156;8.326;2023-04-03T02:01:42;6.10;;;5.60;;
1567;SDS011;777;47.156;8.326;2023-04-03T02:04:10;5.28;;;4.78;;
1567;SDS011;777;47.156;8.326;2023-04-03T02:06:39;5.10;;;4.70;;
1567;SDS011;777;47.156;8.326;2023-04-03T02:09:06;5.43;;;4.95;;
1567;SDS011;777;47.156;8.326;2023-04-03T02:11:33;5.30;;;4.40;;
1567;SDS011;777;47.156;8.326;2023-04-03T02:14:00;6.25;;;5.70;;
1567;SDS011;777;47.156;8.326;2023-04-03T02:16:27;6.53;;;5.93;;
1567;SDS011;777;47.156;8.326;2023-04-03T02:18:55;7.57;;;6.53;;
1567;SDS011;777;47.156;8.326;2023-04-03T02:21:23;7.53;;;6.82;;
1567;SDS011;777;47.156;8.326;2023-04-03T02:23:51;6.78;;;6.18;;
1567;SDS011;777;47.156;8.326;2023-04-03T02:26:18;6.65;;;6.05;;
1567;SDS011;777;47.156;8.326;2023-04-03T02:28:46;7.25;;;6.22;;
1567;SDS011;777;47.156;8.326;2023-04-03T02:31:13;6.70;;;6.10;;
1567;SDS011;777;47.156;8.326;2023-04-03T02:33:42;6.63;;;6.03;;
1567;SDS011;777;47.156;8.326;2023-04-03T02:36:12;6.38;;;5.82;;
1567;SDS011;777;47.156;8.326;2023-04-03T02:38:42;6.53;;;5.95;;
1567;SDS011;777;47.156;8.326;2023-04-03T02:41:11;8.52;;;6.57;;
1567;SDS011;777;47.156;8.326;2023-04-03T02:43:38;7.00;;;6.30;;
1567;SDS011;777;47.156;8.326;2023-04-03T02:46:06;6.75;;;6.15;;
1567;SDS011;777;47.156;8.326;2023-04-03T02:48:33;7.40;;;6.30;;
1567;SDS011;777;47.156;8.326;2023-04-03T02:51:00;6.07;;;5.55;;
1567;SDS011;777;47.156;8.326;2023-04-03T02:53:27;7.03;;;6.32;;
1567;SDS011;777;47.156;8.326;2023-04-03T02:55:55;8.13;;;6.65;;
1567;SDS011;777;47.156;8.326;2023-04-03T02:58:23;7.78;;;7.07;;
1567;SDS011;777;47.156;8.326;2023-04-03T03:00:53;7.80;;;7.10;;
1567;SDS011;777;47.156;8.326;2023-04-03T03:03:20;7.60;;;6.80;;
1567;SDS011;777;47.156;8.326;2023-04-03T03:05:48;6.93;;;6.32;;
1567;SDS011;777;47.156;8.326;2023-04-03T03:08:15;8.73;;;7.15;;
1567;SDS011;777;47.156;8.326;2023-04-03T03:10:45;7.63;;;6.82;;
1567;SDS011;777;47.156;8.326;2023-04-03T03:13:12;7.40;;;6.70;;
1567;SDS011;777;47.156;8.326;2023-04-03T03:15:41;7.72;;;6.47;;
1567;SDS011;777;47.156;8.326;2023-04-03T03:18:08;8.15;;;7.43;;
1567;SDS011;777;47.156;8.326;2023-04-03T03:20:35;7.93;;;7.15;;
1567;SDS011;777;47.156;8.326;2023-04-03T03:23:02;7.50;;;6.80;;
1567;SDS011;777;47.156;8.326;2023-04-03T03:25:29;8.35;;;7.55;;
1567;SDS011;777;47.156;8.326;2023-04-03T03:27:56;8.00;;;7.22;;
1567;SDS011;777;47.156;8.326;2023-04-03T03:30:23;8.27;;;7.47;;
1567;SDS011;777;47.156;8.326;2023-04-03T03:32:52;8.63;;;7.80;;
1567;SDS011;777;47.156;8.326;2023-04-03T03:35:20;8.45;;;7.43;;
1567;SDS011;777;47.156;8.326;2023-04-03T03:37:47;9.05;;;8.25;;
1567;SDS011;777;47.156;8.326;2023-04-03T03:40:14;8.73;;;7.80;;
1567;SDS011;777;47.156;8.326;2023-04-03T03:42:41;9.60;;;8.70;;
1567;SDS011;777;47.156;8.326;2023-04-03T03:45:09;9.55;;;8.65;;
1567;SDS011;777;47.156;8.326;2023-04-03T03:47:36;7.78;;;7.07;;
1567;SDS011;777;47.156;8.326;2023-04-03T03:50:08;9.73;;;8.35;;
1567;SDS011;777;47.156;8.326;2023-04-03T03:52:35;8.60;;;7.90;;
1567;SDS011;777;47.156;8.326;2023-04-03T03:55:02;9.00;;;7.80;;
1567;SDS011;777;47.156;8.326;2023-04-03T03:57:31;8.88;;;8.07;;
1567;SDS011;777;47.156;8.326;2023-04-03T03:59:58;8.07;;;7.38;;
1567;SDS011;777;47.156;8.326;2023-04-03T04:02:25;8.88;;;7.97;;
1567;SDS011;777;47.156;8.326;2023-04-03T04:04:52;7.00;;;6.30;;
1567;SDS011;777;47.156;8.326;2023-04-03T04:07:21;6.95;;;6.28;;
1567;SDS011;777;47.156;8.326;2023-04-03T04:09:49;6.78;;;6.18;;
1567;SDS011;777;47.156;8.326;2023-04-03T04:12:16;6.05;;;5.53;;
1567;SDS011;777;47.156;8.326;2023-04-03T04:14:43;6.72;;;6.13;;
1567;SDS011;777;47.156;8.326;2023-04-03T04:17:12;6.13;;;5.55;;
1567;SDS011;777;47.156;8.326;2023-04-03T04:19:40;5.65;;;5.15;;
1567;SDS011;777;47.156;8.326;2023-04-03T04:22:07;5.40;;;4.90;;
1567;SDS011;777;47.156;8.326;2023-04-03T04:24:35;5.50;;;5.00;;
1567;SDS011;777;47.156;8.326;2023-04-03T04:27:02;5.90;;;5.35;;
1567;SDS011;777;47.156;8.326;2023-04-03T04:29:31;5.57;;;5.13;;
1567;SDS011;777;47.156;8.326;2023-04-03T04:32:01;5.55;;;5.05;;
1567;SDS011;777;47.156;8.326;2023-04-03T04:34:28;5.60;;;5.10;;
1567;SDS011;777;47.156;8.326;2023-04-03T04:36:56;5.70;;;5.20;;
1567;SDS011;777;47.156;8.326;2023-04-03T04:39:24;5.63;;;5.13;;
1567;SDS011;777;47.156;8.326;2023-04-03T04:41:55;5.30;;;4.90;;
1567;SDS011;777;47.156;8.326;2023-04-03T04:44:25;5.53;;;5.00;;
1567;SDS011;777;47.156;8.326;2023-04-03T04:46:52;5.90;;;5.30;;
1567;SDS011;777;47.156;8.326;2023-04-03T04:49:20;5.90;;;5.40;;
1567;SDS011;777;47.156;8.326;2023-04-03T04:51:47;5.80;;;5.30;;
1567;SDS011;777;47.156;8.326;2023-04-03T04:54:16;6.22;;;5.63;;
1567;SDS011;777;47.156;8.326;2023-04-03T04:56:46;5.82;;;5.32;;
1567;SDS011;777;47.156;8.326;2023-04-03T04:59:14;6.10;;;5.50;;
1567;SDS011;777;47.156;8.326;2023-04-03T05:01:42;6.22;;;5.68;;
1567;SDS011;777;47.156;8.326;2023-04-03T05:04:14;6.93;;;6.18;;
1567;SDS011;777;47.156;8.326;2023-04-03T05:06:42;7.20;;;6.53;;
1567;SDS011;777;47.156;8.326;2023-04-03T05:09:14;6.68;;;6.07;;
1567;SDS011;777;47.156;8.326;2023-04-03T05:11:43;7.05;;;6.45;;
1567;SDS011;777;47.156;8.326;2023-04-03T05:14:14;7.45;;;6.75;;
1567;SDS011;777;47.156;8.326;2023-04-03T05:16:42;7.03;;;6.43;;
1567;SDS011;777;47.156;8.326;2023-04-03T05:19:09;7.32;;;6.28;;
1567;SDS011;777;47.156;8.326;2023-04-03T05:21:38;6.60;;;6.00;;
1567;SDS011;777;47.156;8.326;2023-04-03T05:24:10;6.95;;;6.35;;
1567;SDS011;777;47.156;8.326;2023-04-03T05:26:39;6.80;;;6.10;;
1567;SDS011;777;47.156;8.326;2023-04-03T05:29:07;6.45;;;5.85;;
1567;SDS011;777;47.156;8.326;2023-04-03T05:31:35;6.47;;;5.78;;
1567;SDS011;777;47.156;8.326;2023-04-03T05:34:03;6.82;;;6.22;;
1567;SDS011;777;47.156;8.326;2023-04-03T05:36:33;6.88;;;6.15;;
1567;SDS011;777;47.156;8.326;2023-04-03T05:39:04;7.30;;;6.60;;
1567;SDS011;777;47.156;8.326;2023-04-03T05:41:34;6.78;;;6.05;;
1567;SDS011;777;47.156;8.326;2023-04-03T05:44:01;6.80;;;6.18;;
1567;SDS011;777;47.156;8.326;2023-04-03T05:46:28;7.20;;;6.18;;
1567;SDS011;777;47.156;8.326;2023-04-03T05:48:59;6.07;;;5.57;;
1567;SDS011;777;47.156;8.326;2023-04-03T05:51:30;7.43;;;5.97;;
1567;SDS011;777;47.156;8.326;2023-04-03T05:54:08;8.18;;;5.97;;
1567;SDS011;777;47.156;8.326;2023-04-03T05:56:40;7.05;;;6.35;;
1567;SDS011;777;47.156;8.326;2023-04-03T05:59:08;7.47;;;6.78;;
1567;SDS011;777;47.156;8.326;2023-04-03T06:01:35;7.82;;;6.93;;
1567;SDS011;777;47.156;8.326;2023-04-03T06:04:04;6.85;;;6.13;;
1567;SDS011;777;47.156;8.326;2023-04-03T06:06:44;7.78;;;6.53;;
1567;SDS011;777;47.156;8.326;2023-04-03T06:09:12;6.70;;;6.00;;
1567;SDS011;777;47.156;8.326;2023-04-03T06:11:40;15.48;;;8.23;;
1567;SDS011;777;47.156;8.326;2023-04-03T06:14:08;6.53;;;5.88;;
1567;SDS011;777;47.156;8.326;2023-04-03T06:16:35;8.20;;;7.40;;
1567;SDS011;777;47.156;8.326;2023-04-03T06:19:07;7.00;;;6.30;;
1567;SDS011;777;47.156;8.326;2023-04-03T06:21:38;7.43;;;6.68;;
1567;SDS011;777;47.156;8.326;2023-04-03T06:24:05;7.35;;;6.45;;
1567;SDS011;777;47.156;8.326;2023-04-03T06:26:33;7.03;;;6.32;;
1567;SDS011;777;47.156;8.326;2023-04-03T06:29:00;8.90;;;6.90;;
1567;SDS011;777;47.156;8.326;2023-04-03T06:31:27;7.55;;;6.78;;
1567;SDS011;777;47.156;8.326;2023-04-03T06:33:54;7.80;;;7.00;;
1567;SDS011;777;47.156;8.326;2023-04-03T06:36:23;8.75;;;7.13;;
1567;SDS011;777;47.156;8.326;2023-04-03T06:38:50;7.22;;;6.53;;
1567;SDS011;777;47.156;8.326;2023-04-03T06:41:17;6.55;;;5.95;;
1567;SDS011;777;47.156;8.326;2023-04-03T06:43:44;8.50;;;6.65;;
1567;SDS011;777;47.156;8.326;2023-04-03T06:46:15;7.20;;;6.38;;
1567;SDS011;777;47.156;8.326;2023-04-03T06:48:43;8.05;;;5.97;;
1567;SDS011;777;47.156;8.326;2023-04-03T06:51:20;6.78;;;6.07;;
1567;SDS011;777;47.156;8.326;2023-04-03T06:53:51;7.07;;;6.38;;
1567;SDS011;777;47.156;8.326;2023-04-03T06:56:19;7.00;;;6.30;;
1567;SDS011;777;47.156;8.326;2023-04-03T06:58:46;8.85;;;7.28;;
1567;SDS011;777;47.156;8.326;2023-04-03T07:01:14;5.93;;;5.32;;
1567;SDS011;777;47.156;8.326;2023-04-03T07:03:43;8.20;;;6.28;;
1567;SDS011;777;47.156;8.326;2023-04-03T07:06:11;7.82;;;5.80;;
1567;SDS011;777;47.156;8.326;2023-04-03T07:08:39;9.20;;;5.68;;
1567;SDS011;777;47.156;8.326;2023-04-03T07:11:08;6.72;;;5.65;;
1567;SDS011;777;47.156;8.326;2023-04-03T07:13:36;5.82;;;4.95;;
1567;SDS011;777;47.156;8.326;2023-04-03T07:16:03;6.50;;;5.80;;
1567;SDS011;777;47.156;8.326;2023-04-03T07:18:31;6.82;;;5.50;;
1567;SDS011;777;47.156;8.326;2023-04-03T07:20:58;5.85;;;5.15;;
1567;SDS011;777;47.156;8.326;2023-04-03T07:23:25;7.50;;;5.60;;
1567;SDS011;777;47.156;8.326;2023-04-03T07:25:52;5.40;;;4.90;;
1567;SDS011;777;47.156;8.326;2023-04-03T07:28:21;6.38;;;5.57;;
1567;SDS011;777;47.156;8.326;2023-04-03T07:30:49;5.70;;;4.80;;
1567;SDS011;777;47.156;8.326;2023-04-03T07:33:18;5.65;;;5.00;;
1567;SDS011;777;47.156;8.326;2023-04-03T07:35:46;6.22;;;4.75;;
1567;SDS011;777;47.156;8.326;2023-04-03T07:38:13;7.57;;;5.07;;
1567;SDS011;777;47.156;8.326;2023-04-03T07:40:44;5.65;;;5.03;;
1567;SDS011;777;47.156;8.326;2023-04-03T07:43:12;5.60;;;5.10;;
1567;SDS011;777;47.156;8.326;2023-04-03T07:45:41;5.25;;;4.47;;
1567;SDS011;777;47.156;8.326;2023-04-03T07:48:08;7.70;;;5.35;;
1567;SDS011;777;47.156;8.326;2023-04-03T07:50:36;5.40;;;4.63;;
1567;SDS011;777;47.156;8.326;2023-04-03T07:53:03;4.80;;;4.32;;
1567;SDS011;777;47.156;8.326;2023-04-03T07:55:31;5.72;;;4.88;;
1567;SDS011;777;47.156;8.326;2023-04-03T07:57:58;5.70;;;5.07;;
1567;SDS011;777;47.156;8.326;2023-04-03T08:00:25;6.78;;;5.00;;
1567;SDS011;777;47.156;8.326;2023-04-03T08:02:54;6.90;;;4.40;;
1567;SDS011;777;47.156;8.326;2023-04-03T08:05:21;4.65;;;4.25;;
1567;SDS011;777;47.156;8.326;2023-04-03T08:07:48;5.70;;;5.07;;
1567;SDS011;777;47.156;8.326;2023-04-03T08:10:15;5.20;;;4.40;;
1567;SDS011;777;47.156;8.326;2023-04-03T08:12:42;5.35;;;4.55;;
1567;SDS011;777;47.156;8.326;2023-04-03T08:15:12;4.93;;;4.18;;
1567;SDS011;777;47.156;8.326;2023-04-03T08:17:39;5.53;;;4.57;;
1567;SDS011;777;47.156;8.326;2023-04-03T08:20:09;4.72;;;4.22;;
1567;SDS011;777;47.156;8.326;2023-04-03T08:22:37;4.82;;;4.20;;
1567;SDS011;777;47.156;8.326;2023-04-03T08:25:04;5.45;;;4.22;;
1567;SDS011;777;47.156;8.326;2023-04-03T08:27:31;5.00;;;4.50;;
1567;SDS011;777;47.156;8.326;2023-04-03T08:29:58;4.80;;;4.40;;
1567;SDS011;777;47.156;8.326;2023-04-03T08:32:26;5.43;;;3.78;;
1567;SDS011;777;47.156;8.326;2023-04-03T08:34:53;4.90;;;4.40;;
1567;SDS011;777;47.156;8.326;2023-04-03T08:37:22;4.50;;;4.10;;
1567;SDS011;777;47.156;8.326;2023-04-03T08:39:49;4.85;;;4.00;;
1567;SDS011;777;47.156;8.326;2023-04-03T08:42:19;6.72;;;3.75;;
1567;SDS011;777;47.156;8.326;2023-04-03T08:44:58;5.18;;;4.10;;
1567;SDS011;777;47.156;8.326;2023-04-03T08:50:04;6.63;;;4.30;;
1567;SDS011;777;47.156;8.326;2023-04-03T08:52:35;4.95;;;4.32;;
1567;SDS011;777;47.156;8.326;2023-04-03T08:55:06;5.78;;;4.50;;
1567;SDS011;777;47.156;8.326;2023-04-03T08:57:41;5.78;;;4.35;;
1567;SDS011;777;47.156;8.326;2023-04-03T09:00:15;4.80;;;4.13;;
1567;SDS011;777;47.156;8.326;2023-04-03T09:02:44;4.93;;;4.43;;
1567;SDS011;777;47.156;8.326;2023-04-03T09:05:14;5.85;;;4.13;;
1567;SDS011;777;47.156;8.326;2023-04-03T09:07:44;5.20;;;3.83;;
1567;SDS011;777;47.156;8.326;2023-04-03T09:10:14;4.38;;;3.85;;
1567;SDS011;777;47.156;8.326;2023-04-03T09:12:42;4.45;;;3.67;;
1567;SDS011;777;47.156;8.326;2023-04-03T09:15:16;4.65;;;3.80;;
1567;SDS011;777;47.156;8.326;2023-04-03T09:17:53;5.32;;;3.22;;
1567;SDS011;777;47.156;8.326;2023-04-03T09:20:28;4.72;;;3.53;;
1567;SDS011;777;47.156;8.326;2023-04-03T09:23:09;4.10;;;3.58;;
1567;SDS011;777;47.156;8.326;2023-04-03T09:25:43;6.03;;;3.65;;
1567;SDS011;777;47.156;8.326;2023-04-03T09:28:11;5.22;;;3.80;;
1567;SDS011;777;47.156;8.326;2023-04-03T09:30:38;4.90;;;3.60;;
1567;SDS011;777;47.156;8.326;2023-04-03T09:33:05;4.72;;;3.63;;
1567;SDS011;777;47.156;8.326;2023-04-03T09:35:33;5.80;;;3.75;;
1567;SDS011;777;47.156;8.326;2023-04-03T09:38:13;5.63;;;4.30;;
1567;SDS011;777;47.156;8.326;2023-04-03T09:40:44;6.03;;;3.90;;
1567;SDS011;777;47.156;8.326;2023-04-03T09:43:22;4.68;;;4.00;;
1567;SDS011;777;47.156;8.326;2023-04-03T09:45:51;4.32;;;3.88;;
1567;SDS011;777;47.156;8.326;2023-04-03T09:48:20;3.55;;;3.22;;
1567;SDS011;777;47.156;8.326;2023-04-03T09:53:43;5.63;;;4.07;;
1567;SDS011;777;47.156;8.326;2023-04-03T09:56:18;3.97;;;3.53;;
1567;SDS011;777;47.156;8.326;2023-04-03T09:58:48;4.68;;;3.47;;
1567;SDS011;777;47.156;8.326;2023-04-03T10:01:23;3.65;;;3.30;;
1567;SDS011;777;47.156;8.326;2023-04-03T10:04:06;3.80;;;3.28;;
1567;SDS011;777;47.156;8.326;2023-04-03T10:06:37;4.25;;;3.55;;
1567;SDS011;777;47.156;8.326;2023-04-03T10:09:16;3.95;;;3.55;;
1567;SDS011;777;47.156;8.326;2023-04-03T10:11:59;4.57;;;3.65;;
1567;SDS011;777;47.156;8.326;2023-04-03T10:14:29;3.80;;;3.33;;
1567;SDS011;777;47.156;8.326;2023-04-03T10:16:59;4.88;;;3.17;;
1567;SDS011;777;47.156;8.326;2023-04-03T10:19:38;4.45;;;3.60;;
1567;SDS011;777;47.156;8.326;2023-04-03T10:22:12;6.10;;;4.00;;
1567;SDS011;777;47.156;8.326;2023-04-03T10:24:50;4.10;;;3.70;;
1567;SDS011;777;47.156;8.326;2023-04-03T10:27:24;3.80;;;3.38;;
1567;SDS011;777;47.156;8.326;2023-04-03T10:29:59;3.92;;;3.50;;
1567;SDS011;777;47.156;8.326;2023-04-03T10:32:45;3.72;;;3.40;;
1567;SDS011;777;47.156;8.326;2023-04-03T10:35:25;4.40;;;3.33;;
1567;SDS011;777;47.156;8.326;2023-04-03T10:38:04;5.25;;;4.10;;
1567;SDS011;777;47.156;8.326;2023-04-03T10:40:39;4.03;;;3.50;;
1567;SDS011;777;47.156;8.326;2023-04-03T10:43:15;4.40;;;3.95;;
1567;SDS011;777;47.156;8.326;2023-04-03T10:45:53;3.97;;;3.55;;
1567;SDS011;777;47.156;8.326;2023-04-03T10:48:31;3.42;;;3.13;;
1567;SDS011;777;47.156;8.326;2023-04-03T10:51:10;4.63;;;3.45;;
1567;SDS011;777;47.156;8.326;2023-04-03T10:53:49;4.38;;;3.50;;
1567;SDS011;777;47.156;8.326;2023-04-03T10:56:27;4.20;;;3.63;;
1567;SDS011;777;47.156;8.326;2023-04-03T10:59:00;4.32;;;3.28;;
1567;SDS011;777;47.156;8.326;2023-04-03T11:01:35;3.90;;;3.05;;
1567;SDS011;777;47.156;8.326;2023-04-03T11:04:06;4.22;;;3.50;;
1567;SDS011;777;47.156;8.326;2023-04-03T11:06:37;5.22;;;3.97;;
1567;SDS011;777;47.156;8.326;2023-04-03T11:09:11;3.95;;;3.47;;
1567;SDS011;777;47.156;8.326;2023-04-03T11:11:48;5.85;;;3.75;;
1567;SDS011;777;47.156;8.326;2023-04-03T11:14:18;3.92;;;3.55;;
1567;SDS011;777;47.156;8.326;2023-04-03T11:16:54;3.63;;;3.30;;
1567;SDS011;777;47.156;8.326;2023-04-03T11:19:29;3.95;;;3.55;;
1567;SDS011;777;47.156;8.326;2023-04-03T11:22:03;4.07;;;3.55;;
1567;SDS011;777;47.156;8.326;2023-04-03T11:24:37;5.70;;;3.45;;
1567;SDS011;777;47.156;8.326;2023-04-03T11:27:09;3.85;;;3.47;;
1567;SDS011;777;47.156;8.326;2023-04-03T11:32:13;3.25;;;2.90;;
1567;SDS011;777;47.156;8.326;2023-04-03T11:34:53;3.80;;;3.30;;
1567;SDS011;777;47.156;8.326;2023-04-03T11:37:26;4.05;;;3.10;;
1567;SDS011;777;47.156;8.326;2023-04-03T11:40:02;4.78;;;2.92;;
1567;SDS011;777;47.156;8.326;2023-04-03T11:42:36;3.38;;;2.90;;
1567;SDS011;777;47.156;8.326;2023-04-03T11:45:17;4.07;;;3.20;;
1567;SDS011;777;47.156;8.326;2023-04-03T11:47:59;3.60;;;3.17;;
1567;SDS011;777;47.156;8.326;2023-04-03T11:50:30;4.30;;;3.22;;
1567;SDS011;777;47.156;8.326;2023-04-03T11:55:58;7.22;;;3.35;;
1567;SDS011;777;47.156;8.326;2023-04-03T11:58:29;4.30;;;3.03;;
1567;SDS011;777;47.156;8.326;2023-04-03T12:01:02;4.20;;;3.80;;
1567;SDS011;777;47.156;8.326;2023-04-03T12:09:28;3.20;;;2.90;;
1567;SDS011;777;47.156;8.326;2023-04-03T12:12:24;4.55;;;3.38;;
1567;SDS011;777;47.156;8.326;2023-04-03T12:17:50;3.65;;;3.00;;
1567;SDS011;777;47.156;8.326;2023-04-03T12:23:29;3.92;;;3.53;;
1567;SDS011;777;47.156;8.326;2023-04-03T12:26:05;4.32;;;3.10;;
1567;SDS011;777;47.156;8.326;2023-04-03T12:28:46;2.90;;;2.65;;
1567;SDS011;777;47.156;8.326;2023-04-03T12:31:15;3.50;;;3.17;;
1567;SDS011;777;47.156;8.326;2023-04-03T12:36:36;3.67;;;2.97;;
1567;SDS011;777;47.156;8.326;2023-04-03T12:39:18;3.17;;;2.88;;
1567;SDS011;777;47.156;8.326;2023-04-03T12:42:02;3.72;;;3.05;;
1567;SDS011;777;47.156;8.326;2023-04-03T12:44:40;4.28;;;2.83;;
1567;SDS011;777;47.156;8.326;2023-04-03T12:47:26;3.20;;;2.90;;
1567;SDS011;777;47.156;8.326;2023-04-03T12:49:59;2.90;;;2.60;;
1567;SDS011;777;47.156;8.326;2023-04-03T12:52:33;3.25;;;2.72;;
1567;SDS011;777;47.156;8.326;2023-04-03T12:55:14;3.35;;;2.88;;
1567;SDS011;777;47.156;8.326;2023-04-03T12:57:44;3.92;;;3.10;;
1567;SDS011;777;47.156;8.326;2023-04-03T13:00:19;4.40;;;2.70;;
1567;SDS011;777;47.156;8.326;2023-04-03T13:03:05;2.90;;;2.60;;
1567;SDS011;777;47.156;8.326;2023-04-03T13:05:47;3.33;;;2.72;;
1567;SDS011;777;47.156;8.326;2023-04-03T13:08:14;3.25;;;2.80;;
1567;SDS011;777;47.156;8.326;2023-04-03T13:10:48;4.55;;;3.00;;
1567;SDS011;777;47.156;8.326;2023-04-03T13:13:21;3.63;;;2.95;;
1567;SDS011;777;47.156;8.326;2023-04-03T13:15:49;3.65;;;2.88;;
1567;SDS011;777;47.156;8.326;2023-04-03T13:18:23;3.92;;;2.90;;
1567;SDS011;777;47.156;8.326;2023-04-03T13:20:54;7.80;;;3.30;;
1567;SDS011;777;47.156;8.326;2023-04-03T13:23:26;4.63;;;2.90;;
1567;SDS011;777;47.156;8.326;2023-04-03T13:25:53;4.75;;;2.83;;
1567;SDS011;777;47.156;8.326;2023-04-03T13:28:23;3.05;;;2.75;;
1567;SDS011;777;47.156;8.326;2023-04-03T13:30:55;3.28;;;2.60;;
1567;SDS011;777;47.156;8.326;2023-04-03T13:33:28;2.92;;;2.70;;
1567;SDS011;777;47.156;8.326;2023-04-03T13:36:02;3.30;;;2.78;;
1567;SDS011;777;47.156;8.326;2023-04-03T13:38:31;3.05;;;2.75;;
1567;SDS011;777;47.156;8.326;2023-04-03T13:41:02;3.92;;;3.05;;
1567;SDS011;777;47.156;8.326;2023-04-03T13:43:32;5.10;;;3.20;;
1567;SDS011;777;47.156;8.326;2023-04-03T13:46:02;4.25;;;3.05;;
1567;SDS011;777;47.156;8.326;2023-04-03T13:48:35;3.42;;;2.70;;
1567;SDS011;777;47.156;8.326;2023-04-03T13:51:07;3.30;;;3.00;;
1567;SDS011;777;47.156;8.326;2023-04-03T13:53:46;3.58;;;3.15;;
1567;SDS011;777;47.156;8.326;2023-04-03T13:56:17;4.75;;;3.47;;
1567;SDS011;777;47.156;8.326;2023-04-03T13:58:52;3.88;;;3.53;;
1567;SDS011;777;47.156;8.326;2023-04-03T14:01:23;5.55;;;3.63;;
1567;SDS011;777;47.156;8.326;2023-04-03T14:03:59;7.22;;;3.63;;
1567;SDS011;777;47.156;8.326;2023-04-03T14:06:29;3.90;;;3.20;;
1567;SDS011;777;47.156;8.326;2023-04-03T14:08:56;4.53;;;3.80;;
1567;SDS011;777;47.156;8.326;2023-04-03T14:11:24;5.40;;;3.50;;
1567;SDS011;777;47.156;8.326;2023-04-03T14:13:55;5.03;;;3.80;;
1567;SDS011;777;47.156;8.326;2023-04-03T14:16:26;4.43;;;3.55;;
1567;SDS011;777;47.156;8.326;2023-04-03T14:18:56;5.50;;;3.50;;
1567;SDS011;777;47.156;8.326;2023-04-03T14:21:23;4.68;;;3.75;;
1567;SDS011;777;47.156;8.326;2023-04-03T14:23:52;4.22;;;3.63;;
1567;SDS011;777;47.156;8.326;2023-04-03T14:26:20;5.22;;;3.45;;
1567;SDS011;777;47.156;8.326;2023-04-03T14:28:53;3.53;;;3.20;;
1567;SDS011;777;47.156;8.326;2023-04-03T14:31:21;4.20;;;3.22;;
1567;SDS011;777;47.156;8.326;2023-04-03T14:33:48;5.43;;;3.70;;
1567;SDS011;777;47.156;8.326;2023-04-03T14:36:17;4.78;;;3.47;;
1567;SDS011;777;47.156;8.326;2023-04-03T14:38:46;3.60;;;3.30;;
1567;SDS011;777;47.156;8.326;2023-04-03T14:41:16;4.43;;;3.40;;
1567;SDS011;777;47.156;8.326;2023-04-03T14:43:45;4.68;;;3.42;;
1567;SDS011;777;47.156;8.326;2023-04-03T14:46:14;3.88;;;3.45;;
1567;SDS011;777;47.156;8.326;2023-04-03T14:48:42;4.82;;;3.35;;
1567;SDS011;777;47.156;8.326;2023-04-03T14:51:10;5.10;;;3.22;;
1567;SDS011;777;47.156;8.326;2023-04-03T14:53:38;4.05;;;3.50;;
1567;SDS011;777;47.156;8.326;2023-04-03T14:56:10;3.80;;;3.13;;
1567;SDS011;777;47.156;8.326;2023-04-03T14:58:39;5.00;;;3.30;;
1567;SDS011;777;47.156;8.326;2023-04-03T15:01:08;3.65;;;3.35;;
1567;SDS011;777;47.156;8.326;2023-04-03T15:03:36;3.97;;;3.10;;
1567;SDS011;777;47.156;8.326;2023-04-03T15:06:03;3.88;;;3.38;;
1567;SDS011;777;47.156;8.326;2023-04-03T15:08:30;4.05;;;3.55;;
1567;SDS011;777;47.156;8.326;2023-04-03T15:10:57;3.95;;;3.55;;
1567;SDS011;777;47.156;8.326;2023-04-03T15:13:26;4.35;;;3.30;;
1567;SDS011;777;47.156;8.326;2023-04-03T15:15:54;4.18;;;3.00;;
1567;SDS011;777;47.156;8.326;2023-04-03T15:18:21;4.30;;;3.35;;
1567;SDS011;777;47.156;8.326;2023-04-03T15:20:51;4.63;;;3.22;;
1567;SDS011;777;47.156;8.326;2023-04-03T15:23:18;3.90;;;3.20;;
1567;SDS011;777;47.156;8.326;2023-04-03T15:25:46;3.55;;;3.20;;
1567;SDS011;777;47.156;8.326;2023-04-03T15:28:17;4.72;;;3.45;;
1567;SDS011;777;47.156;8.326;2023-04-03T15:30:47;4.50;;;3.20;;
1567;SDS011;777;47.156;8.326;2023-04-03T15:33:16;5.18;;;3.33;;
1567;SDS011;777;47.156;8.326;2023-04-03T15:35:43;3.83;;;2.95;;
1567;SDS011;777;47.156;8.326;2023-04-03T15:38:10;4.00;;;3.30;;
1567;SDS011;777;47.156;8.326;2023-04-03T15:40:37;5.10;;;3.30;;
1567;SDS011;777;47.156;8.326;2023-04-03T15:43:04;4.13;;;3.40;;
1567;SDS011;777;47.156;8.326;2023-04-03T15:45:33;5.70;;;3.67;;
1567;SDS011;777;47.156;8.326;2023-04-03T15:48:02;4.40;;;3.08;;
1567;SDS011;777;47.156;8.326;2023-04-03T15:50:31;4.80;;;3.40;;
1567;SDS011;777;47.156;8.326;2023-04-03T15:52:58;5.18;;;3.55;;
1567;SDS011;777;47.156;8.326;2023-04-03T15:55:27;5.43;;;3.60;;
1567;SDS011;777;47.156;8.326;2023-04-03T15:57:55;5.78;;;3.40;;
1567;SDS011;777;47.156;8.326;2023-04-03T16:00:23;5.72;;;3.03;;
1567;SDS011;777;47.156;8.326;2023-04-03T16:02:52;4.93;;;3.80;;
1567;SDS011;777;47.156;8.326;2023-04-03T16:05:23;4.28;;;3.15;;
1567;SDS011;777;47.156;8.326;2023-04-03T16:07:52;4.22;;;3.08;;
1567;SDS011;777;47.156;8.326;2023-04-03T16:10:20;3.63;;;2.80;;
1567;SDS011;777;47.156;8.326;2023-04-03T16:12:47;4.88;;;3.15;;
1567;SDS011;777;47.156;8.326;2023-04-03T16:15:14;4.40;;;3.10;;
1567;SDS011;777;47.156;8.326;2023-04-03T16:17:42;5.00;;;3.60;;
1567;SDS011;777;47.156;8.326;2023-04-03T16:20:10;4.53;;;3.20;;